Latest Weather Observations for Laverton

IDV60801

Issued at 1:35 pm EST Friday 1 August 2014 (issued every 30 minutes, with the page automatically refreshed every 10 minutes)

About weather observations | Map of weather stations | Latest weather observations for VIC | Other Formats
Station Details ID: 087031 Name: LAVERTON RAAF Lat: -37.86 Lon: 144.76 Height: 20.1 m
Data from the previous 72 hours. | See also: Recent months at Laverton
Date/Time
EST
Temp
°C
App
Temp
°C
Dew
Point
Rel
Hum
%
Delta-T
°C
Wind Press
QNH
hPa
Press
MSL
hPa
Rain
since 9 am
mm
Dir
 
Spd
km/h
Gust
km/h
Spd
kts
Gust
kts
01/01:30pm 8.6 1.5 3.8 72 2.1 W 30 44 16 24 1007.8 - 1.2
01/01:19pm 8.3 1.8 4.5 77 1.7 W 28 46 15 25 1007.8 - 1.2
01/01:16pm 8.2 2.9 4.8 79 1.5 W 22 28 12 15 1007.8 - 1.2
01/01:00pm 7.2 1.7 4.0 80 1.4 W 22 35 12 19 1007.7 - 1.2
01/12:55pm 7.4 0.7 3.8 78 1.5 W 28 39 15 21 1007.8 - 0.8
01/12:30pm 7.7 0.7 3.9 77 1.6 WNW 30 41 16 22 1006.9 - 0.6
01/12:00pm 6.5 -1.0 4.2 85 1.0 WNW 33 43 18 23 1006.3 1006.3 0.6
01/11:54am 6.2 -1.8 3.9 85 1.0 WNW 35 50 19 27 1006.2 - 0.6
01/11:52am 6.1 -2.7 3.8 85 1.0 WNW 39 50 21 27 1006.1 - 0.6
01/11:30am 6.4 -4.2 3.2 80 1.3 W 48 70 26 38 1006.2 - 0.2
01/11:26am 7.0 -3.2 3.1 76 1.6 W 46 70 25 38 1006.1 - 0.0
01/11:21am 8.4 -1.4 2.4 66 2.5 W 43 63 23 34 1005.8 - 0.0
01/11:00am 8.9 -0.6 2.0 62 2.9 WNW 41 57 22 31 1005.2 - 0.0
01/10:31am 10.0 0.3 2.6 60 3.2 NW 43 61 23 33 1004.2 - 0.0
01/10:30am 10.0 0.3 2.6 60 3.2 NW 43 59 23 32 1004.2 - 0.0
01/10:09am 8.7 0.0 1.8 62 2.9 NW 37 57 20 31 1004.0 - 0.0
01/10:00am 8.4 0.0 1.6 62 2.8 NW 35 50 19 27 1004.3 - 0.0
01/09:50am 8.3 0.0 1.9 64 2.6 NW 35 54 19 29 1004.2 - 0.0
01/09:30am 8.1 -1.3 2.1 66 2.5 NW 41 54 22 29 1003.1 - 0.0
01/09:00am 7.1 -2.4 1.8 69 2.2 NW 41 54 22 29 1003.0 1003.0 5.4
01/08:37am 6.9 -1.1 1.4 68 2.2 NW 33 52 18 28 1003.0 - 5.4
01/08:30am 6.7 -1.3 1.4 69 2.1 NW 33 44 18 24 1003.0 - 5.4
01/08:00am 6.0 -1.1 1.3 72 1.9 NW 28 35 15 19 1003.0 - 5.4
01/07:30am 5.0 -0.6 1.1 76 1.5 NW 20 30 11 16 1002.9 - 5.4
01/07:00am 5.3 -0.3 0.9 73 1.7 NW 20 30 11 16 1002.2 - 5.4
01/06:30am 6.1 0.1 1.1 70 2.0 NNW 22 37 12 20 1000.6 - 5.4
01/06:00am 6.6 -0.2 0.9 67 2.3 NNW 26 43 14 23 1000.8 1000.8 5.4
01/05:42am 6.5 -2.0 1.0 68 2.2 NW 35 54 19 29 1000.9 - 5.4
01/05:30am 6.4 -1.5 1.1 69 2.1 NW 32 48 17 26 1000.8 - 5.4
01/05:00am 6.2 -2.2 1.3 71 2.0 NW 35 46 19 25 1001.0 - 5.4
01/04:30am 6.3 -2.5 1.4 71 2.0 NW 37 52 20 28 1001.1 - 5.4
01/04:00am 6.2 -0.5 1.3 71 2.0 NW 26 41 14 22 1001.5 - 5.4
01/03:30am 6.3 0.7 1.4 71 2.0 NW 20 28 11 15 1002.0 - 5.4
01/03:00am 6.5 2.2 1.2 69 2.1 NNW 13 26 7 14 1002.4 1002.4 5.4
01/02:30am 6.6 -0.9 1.5 70 2.1 NW 30 44 16 24 1001.7 - 5.4
01/02:00am 6.8 -1.9 1.9 71 2.0 NW 37 56 20 30 1001.0 - 5.4
01/01:30am 6.3 -2.5 1.6 72 1.9 NW 37 50 20 27 1001.2 - 5.4
01/01:00am 6.1 -1.7 2.0 75 1.7 NW 32 39 17 21 1001.3 - 5.4
01/12:30am 6.4 -1.0 1.9 73 1.8 NW 30 39 16 21 1001.9 - 5.4
01/12:00am 6.3 -0.3 2.0 74 1.8 NW 26 33 14 18 1001.9 1001.9 5.4
 
Date/Time
EST
Temp
°C
App
Temp
°C
Dew
Point
Rel
Hum
%
Delta-T
°C
Wind Press
QNH
hPa
Press
MSL
hPa
Rain
since 9 am
mm
Dir
 
Spd
km/h
Gust
km/h
Spd
kts
Gust
kts
31/11:30pm 6.7 -0.3 2.2 73 1.8 NW 28 35 15 19 1002.0 - 5.4
31/11:00pm 7.4 -0.3 2.5 71 2.0 WNW 32 44 17 24 1002.1 - 5.4
31/10:30pm 7.1 -0.2 2.6 73 1.9 NW 30 41 16 22 1001.8 - 5.4
31/10:00pm 7.1 -0.1 3.0 75 1.7 NW 30 39 16 21 1001.6 - 5.4
31/09:30pm 7.5 -0.7 2.8 72 2.0 NW 35 48 19 26 1001.1 - 5.4
31/09:00pm 7.9 -0.4 2.4 68 2.3 WNW 35 46 19 25 1001.2 1001.2 5.4
31/08:30pm 7.8 0.6 3.1 72 2.0 WNW 30 39 16 21 1001.1 - 5.4
31/08:00pm 7.7 1.1 4.3 79 1.5 WNW 28 37 15 20 1001.1 - 5.4
31/07:30pm 7.1 1.8 4.9 86 1.0 NW 22 28 12 15 1000.9 - 5.4
31/07:00pm 6.6 1.3 4.9 89 0.7 NNW 22 30 12 16 1000.3 - 5.4
31/06:30pm 6.5 1.5 4.8 89 0.7 NNW 20 24 11 13 1000.3 - 5.4
31/06:00pm 6.6 0.5 4.9 89 0.7 NW 26 33 14 18 1000.0 1000.0 5.2
31/05:39pm 6.5 -0.4 4.8 89 0.7 WNW 30 43 16 23 999.9 - 5.2
31/05:30pm 6.6 -0.6 4.8 88 0.8 WNW 32 46 17 25 1000.0 - 4.8
31/05:20pm 6.9 0.1 5.1 88 0.8 W 30 56 16 30 999.8 - 4.8
31/05:00pm 7.1 0.7 5.3 88 0.8 W 28 43 15 23 999.9 - 4.0
31/04:49pm 7.3 0.2 5.4 88 0.8 W 32 50 17 27 999.6 - 3.6
31/04:30pm 7.6 0.3 5.6 87 0.9 W 33 50 18 27 999.3 - 2.8
31/04:00pm 8.1 -1.0 5.9 86 1.0 W 43 61 23 33 998.7 - 1.8
31/03:30pm 8.8 1.1 7.3 90 0.7 WSW 37 57 20 31 997.9 - 1.0
31/03:00pm 9.3 -1.3 7.1 86 1.0 WSW 52 76 28 41 996.8 996.8 0.2
31/02:58pm 9.4 -0.8 6.8 84 1.2 WSW 50 76 27 41 996.5 - 0.0
31/02:54pm 9.7 -0.6 6.4 80 1.5 WSW 50 67 27 36 996.6 - 0.0
31/02:43pm 13.2 1.1 5.9 61 3.4 W 59 80 32 43 995.9 - 0.0
31/02:42pm 14.8 3.1 6.1 56 4.2 W 57 80 31 43 995.9 - 0.0
31/02:30pm 19.1 7.4 5.2 40 6.8 NW 56 78 30 42 993.7 - 0.0
31/02:00pm 18.7 6.4 5.2 41 6.6 NW 59 83 32 45 993.1 - 0.0
31/01:30pm 18.7 6.3 4.8 40 6.7 NNW 59 80 32 43 993.4 - 0.0
31/01:00pm 18.6 7.6 5.1 41 6.5 NNW 52 74 28 40 993.7 - 0.0
31/12:30pm 18.5 6.7 5.0 41 6.5 NNW 56 76 30 41 994.8 - 0.0
31/12:00pm 17.8 6.4 5.1 43 6.2 NNW 54 80 29 43 995.5 995.5 0.0
31/11:30am 17.5 6.2 5.4 45 5.8 NW 54 74 29 40 996.8 - 0.0
31/11:00am 17.4 7.4 6.0 47 5.6 NNW 48 78 26 42 997.6 - 0.0
31/10:30am 17.0 5.7 5.6 47 5.5 NNW 54 80 29 43 998.1 - 0.0
31/10:00am 17.1 7.4 5.7 47 5.5 NNW 46 74 25 40 998.6 - 0.0
31/09:30am 16.8 7.0 5.4 47 5.5 NNW 46 70 25 38 998.8 - 0.0
31/09:00am 16.2 7.6 6.3 52 4.9 N 41 61 22 33 999.4 999.4 0.0
31/08:37am 15.2 9.2 7.2 59 3.9 N 28 46 15 25 1000.3 - 0.0
31/08:30am 14.8 8.9 7.4 61 3.7 N 28 41 15 22 1000.5 - 0.0
31/08:00am 14.3 8.4 7.6 64 3.3 N 28 41 15 22 1000.7 - 0.0
31/07:30am 14.0 8.1 7.5 65 3.2 N 28 46 15 25 1000.9 - 0.0
31/07:01am 14.2 8.2 7.0 62 3.5 N 28 46 15 25 1001.2 - 0.0
31/07:00am 14.2 7.8 7.0 62 3.5 N 30 46 16 25 1001.3 - 0.0
31/06:30am 14.2 7.4 7.0 62 3.5 N 32 50 17 27 1001.8 - 0.0
31/06:00am 14.3 7.9 7.1 62 3.5 N 30 48 16 26 1002.4 1002.4 0.0
31/05:34am 14.6 8.7 7.4 62 3.5 N 28 46 15 25 1002.6 - 0.0
31/05:30am 14.6 9.1 7.4 62 3.5 N 26 43 14 23 1002.7 - 0.0
31/05:17am 14.7 8.8 7.3 61 3.6 N 28 46 15 25 1002.7 - 0.0
31/05:00am 13.9 9.1 7.2 64 3.3 NNW 22 30 12 16 1003.5 - 0.0
31/04:30am 13.2 8.3 7.0 66 3.0 N 22 35 12 19 1003.8 - 0.0
31/04:00am 14.3 9.1 5.4 55 4.2 N 22 39 12 21 1004.1 - 0.0
31/03:30am 14.2 9.4 5.8 57 4.0 N 20 39 11 21 1004.7 - 0.0
31/03:00am 14.7 9.3 6.3 57 4.1 N 24 39 13 21 1005.4 1005.4 0.0
31/02:30am 14.6 10.2 7.2 61 3.6 N 20 28 11 15 1006.1 - 0.0
31/02:00am 14.7 10.4 6.8 59 3.8 N 19 28 10 15 1006.5 - 0.0
31/01:30am 14.8 9.6 7.4 61 3.7 N 24 35 13 19 1006.9 - 0.0
31/01:00am 15.3 10.0 8.3 63 3.5 NNW 26 41 14 22 1007.6 - 0.0
31/12:33am 15.8 10.0 7.8 59 4.0 NNW 28 46 15 25 1007.6 - 0.0
31/12:30am 15.6 10.6 7.9 60 3.9 NNW 24 41 13 22 1007.7 - 0.0
31/12:01am 15.4 9.2 7.9 61 3.8 NNW 30 48 16 26 1007.9 - 0.0
31/12:00am 15.5 8.9 7.8 60 3.9 NNW 32 48 17 26 1008.0 1008.0 0.0
 
Date/Time
EST
Temp
°C
App
Temp
°C
Dew
Point
Rel
Hum
%
Delta-T
°C
Wind Press
QNH
hPa
Press
MSL
hPa
Rain
since 9 am
mm
Dir
 
Spd
km/h
Gust
km/h
Spd
kts
Gust
kts
30/11:30pm 15.5 9.4 8.3 62 3.6 NNW 30 43 16 23 1008.4 - 0.0
30/11:00pm 15.1 9.4 8.3 64 3.4 N 28 39 15 21 1008.5 - 0.0
30/10:30pm 15.4 9.9 7.7 60 3.8 N 26 39 14 21 1008.8 - 0.0
30/10:00pm 15.2 10.4 7.5 60 3.8 N 22 32 12 17 1009.3 - 0.0
30/09:30pm 15.1 10.9 7.6 61 3.7 N 19 28 10 15 1009.7 - 0.0
30/09:00pm 15.5 9.9 7.0 57 4.2 NNW 26 37 14 20 1009.9 1009.9 0.0
30/08:30pm 14.8 9.7 7.6 62 3.6 NNW 24 35 13 19 1009.6 - 0.0
30/08:00pm 14.9 9.5 7.9 63 3.5 NNW 26 39 14 21 1009.6 - 0.0
30/07:30pm 14.8 9.9 8.3 65 3.3 NNW 24 35 13 19 1009.7 - 0.0
30/07:00pm 15.0 10.5 8.7 66 3.2 NNW 22 32 12 17 1009.8 - 0.0
30/06:30pm 15.6 11.6 9.1 65 3.3 N 20 30 11 16 1009.4 - 0.0
30/06:00pm 16.2 11.4 8.9 62 3.8 N 24 35 13 19 1009.4 1009.4 0.0
30/05:30pm 15.7 11.7 8.9 64 3.5 NNW 20 30 11 16 1009.6 - 0.0
30/05:00pm 16.4 12.2 9.6 64 3.5 NNW 22 30 12 16 1009.8 - 0.0
30/04:30pm 17.4 12.8 9.6 60 4.1 NNW 24 33 13 18 1009.6 - 0.0
30/04:00pm 17.5 10.4 9.7 60 4.1 NW 37 46 20 25 1009.5 - 0.0
30/03:30pm 17.6 9.9 10.0 61 4.0 NW 41 56 22 30 1009.8 - 0.0
30/03:00pm 18.3 10.5 9.9 58 4.5 NW 41 59 22 32 1009.5 1009.5 0.0
30/02:30pm 17.6 9.5 10.0 61 4.0 NW 43 61 23 33 1009.4 - 0.0
30/02:22pm 17.9 9.7 9.8 59 4.3 WNW 43 61 23 33 1009.3 - 0.0
30/02:00pm 18.8 11.1 10.1 57 4.6 NW 41 54 22 29 1009.2 - 0.0
30/01:44pm 18.9 12.0 10.2 57 4.7 NW 37 56 20 30 1009.4 - 0.0
30/01:30pm 17.9 12.0 10.3 61 4.1 NW 32 48 17 26 1009.7 - 0.0
30/01:28pm 17.9 12.3 10.0 60 4.2 NNW 30 48 16 26 1009.7 - 0.0
30/01:00pm 17.7 11.6 9.8 60 4.2 NW 32 41 17 22 1010.3 - 0.0
30/12:30pm 17.8 11.7 9.7 59 4.3 NW 32 41 17 22 1010.7 - 0.0
30/12:00pm 17.3 11.2 9.7 61 4.0 NNW 32 43 17 23 1011.2 1011.2 0.0
30/11:30am 17.1 11.7 9.5 61 4.0 NNW 28 37 15 20 1011.8 - 0.0
30/11:00am 16.6 10.8 9.5 63 3.7 NW 30 43 16 23 1012.3 - 0.0
30/10:30am 15.8 12.1 10.1 69 3.0 NNW 20 30 11 16 1012.5 - 0.0
30/10:00am 15.3 10.7 9.7 69 2.9 NW 24 37 13 20 1013.0 - 0.0
30/09:30am 15.6 11.0 9.7 68 3.1 N 24 33 13 18 1012.4 - 0.0
30/09:00am 14.1 10.1 9.1 72 2.5 N 20 30 11 16 1012.3 1012.3 0.0
30/08:30am 13.3 9.0 9.2 76 2.1 N 22 30 12 16 1012.3 - 0.0
30/08:00am 12.3 8.5 9.0 80 1.7 N 19 30 10 16 1011.9 - 0.0
30/07:30am 11.8 8.5 8.1 78 1.8 N 15 20 8 11 1012.0 - 0.0
30/07:00am 12.0 8.2 7.7 75 2.1 NNW 17 22 9 12 1012.0 - 0.0
30/06:30am 11.6 7.9 8.1 79 1.7 NNW 17 22 9 12 1012.0 - 0.0
30/06:00am 11.3 8.0 8.0 80 1.6 NW 15 19 8 10 1012.0 1012.0 0.0
30/05:30am 12.1 9.0 8.9 81 1.6 NNW 15 19 8 10 1011.9 - 0.0
30/05:00am 11.8 9.2 9.4 85 1.2 NW 13 19 7 10 1011.6 - 0.0
30/04:30am 13.0 9.1 9.4 79 1.8 WSW 20 32 11 17 1011.5 - 0.0
30/04:00am 13.9 10.2 9.5 75 2.3 WNW 19 24 10 13 1011.3 - 0.0
30/03:30am 14.0 10.7 9.4 74 2.4 NW 17 24 9 13 1011.4 - 0.0
30/03:00am 14.0 10.7 9.6 75 2.3 NW 17 22 9 12 1011.2 1011.2 0.0
30/02:30am 13.7 11.2 9.6 76 2.1 NW 13 17 7 9 1011.3 - 0.0
30/02:00am 14.2 11.0 9.8 75 2.3 NW 17 24 9 13 1011.1 - 0.0
30/01:30am 14.0 10.8 9.8 76 2.2 NW 17 22 9 12 1011.1 - 0.0
30/01:00am 14.2 11.4 10.0 76 2.2 NW 15 19 8 10 1011.0 - 0.0
30/12:36am 13.9 12.4 10.5 80 1.8 WSW 9 13 5 7 1011.1 - 0.0
30/12:30am 14.1 11.8 10.5 79 1.9 W 13 24 7 13 1011.1 - 0.0
30/12:17am 14.6 8.9 9.8 73 2.5 NW 30 43 16 23 1011.1 - 0.0
30/12:00am 15.1 10.9 9.9 71 2.7 NW 22 30 12 16 1010.7 1010.7 0.0
 
Date/Time
EST
Temp
°C
App
Temp
°C
Dew
Point
Rel
Hum
%
Delta-T
°C
Wind Press
QNH
hPa
Press
MSL
hPa
Rain
since 9 am
mm
Dir
 
Spd
km/h
Gust
km/h
Spd
kts
Gust
kts
29/11:30pm 15.0 10.4 9.8 71 2.7 NW 24 35 13 19 1010.5 - 0.0
29/11:00pm 15.1 10.5 9.7 70 2.8 NW 24 33 13 18 1010.3 - 0.0
29/10:30pm 15.6 9.5 9.7 68 3.1 NW 32 46 17 25 1010.0 - 0.0
29/10:00pm 15.9 9.8 9.6 66 3.3 NW 32 43 17 23 1009.8 - 0.0
29/09:30pm 15.8 10.1 9.9 68 3.1 NW 30 39 16 21 1009.5 - 0.0
29/09:00pm 15.6 10.7 9.9 69 3.0 NW 26 35 14 19 1009.7 1009.7 0.0
29/08:30pm 15.3 10.4 10.1 71 2.7 NW 26 35 14 19 1009.6 - 0.0
29/08:00pm 15.5 12.3 9.8 69 3.0 NNW 17 24 9 13 1009.7 - 0.0
29/07:30pm 15.5 11.4 10.1 70 2.8 NNW 22 32 12 17 1009.4 - 0.0
29/07:00pm 15.6 11.4 9.9 69 3.0 NNW 22 35 12 19 1009.2 - 0.0
29/06:30pm 15.9 10.2 9.8 67 3.2 NW 30 43 16 23 1008.8 - 0.0
29/06:00pm 16.2 11.2 9.6 65 3.4 NNW 26 43 14 23 1008.8 1008.8 0.0
29/05:30pm 16.3 9.6 9.5 64 3.5 NW 35 54 19 29 1008.1 - 0.0
29/05:08pm 16.4 10.1 9.6 64 3.5 NW 33 52 18 28 1007.9 - 0.0
29/05:00pm 16.5 10.1 9.4 63 3.7 NNW 33 46 18 25 1008.0 - 0.0
29/04:40pm 16.4 11.1 9.8 65 3.5 NW 28 46 15 25 1007.6 - 0.0
29/04:30pm 15.6 10.2 9.5 67 3.2 NNW 28 39 15 21 1007.6 - 0.0
29/04:00pm 16.1 10.6 9.3 64 3.5 NNW 28 41 15 22 1007.0 - 0.0
29/03:33pm 16.3 10.8 9.0 62 3.8 NNW 28 46 15 25 1007.2 - 0.0
29/03:30pm 16.2 11.0 8.9 62 3.7 NNW 26 43 14 23 1007.3 - 0.0
29/03:00pm 16.3 10.3 8.8 61 3.9 NNW 30 50 16 27 1007.4 1007.4 0.0
29/02:38pm 16.1 9.6 8.8 62 3.7 NNW 33 52 18 28 1007.3 - 0.0
29/02:30pm 16.4 10.1 8.9 61 3.9 NNW 32 48 17 26 1007.2 - 0.0
29/02:12pm 16.5 11.0 9.0 61 3.9 NNW 28 50 15 27 1007.1 - 0.0
29/02:00pm 16.2 10.7 9.2 63 3.6 NNW 28 44 15 24 1007.0 - 0.0
29/01:39pm 15.7 9.8 8.9 64 3.5 NNW 30 48 16 26 1007.1 - 0.0

Other Formats:

Comma delimited format used in spreadsheet applications
http://www.bom.gov.au/fwo/IDV60801/IDV60801.94865.axf

JavaScript Object Notation format (JSON) in row-major order
http://www.bom.gov.au/fwo/IDV60801/IDV60801.94865.json